createdAt,value
2019-03-21T20:13:46.347Z,979.69
2019-03-21T20:14:46.342Z,979.7
2019-03-21T20:15:46.326Z,979.69
2019-03-21T20:16:46.315Z,979.69
2019-03-21T20:17:46.307Z,979.68
2019-03-21T20:18:46.296Z,979.7
2019-03-21T20:19:46.288Z,979.71
2019-03-21T20:20:46.276Z,979.75
2019-03-21T20:21:47.973Z,979.73
2019-03-21T20:22:46.255Z,979.72
2019-03-21T20:23:46.257Z,979.72
2019-03-21T20:24:46.235Z,979.66
2019-03-21T20:25:46.267Z,979.7
2019-03-21T20:26:46.216Z,979.75
2019-03-21T20:27:46.208Z,979.73
2019-03-21T20:28:46.199Z,979.74
2019-03-21T20:29:46.189Z,979.73
2019-03-21T20:30:46.181Z,979.76
2019-03-21T20:31:46.173Z,979.7
2019-03-21T20:32:46.163Z,979.72
2019-03-21T20:33:46.153Z,979.69
2019-03-21T20:34:46.144Z,979.69
2019-03-21T20:35:46.135Z,979.74
2019-03-21T20:36:46.131Z,979.73
2019-03-21T20:37:46.119Z,979.73
2019-03-21T20:38:46.110Z,979.71
2019-03-21T20:39:46.103Z,979.74
2019-03-21T20:40:46.094Z,979.66
2019-03-21T20:41:46.084Z,979.69
2019-03-21T20:42:46.075Z,979.67
2019-03-21T20:43:46.066Z,979.66
2019-03-21T20:44:46.059Z,979.64
2019-03-21T20:45:46.050Z,979.62
2019-03-21T20:46:46.040Z,979.64
2019-03-21T20:47:46.033Z,979.62
2019-03-21T20:48:46.024Z,979.6
2019-03-21T20:49:46.015Z,979.58
2019-03-21T20:50:46.008Z,979.58
2019-03-21T20:51:45.999Z,979.57
2019-03-21T20:52:45.991Z,979.6
2019-03-21T20:53:45.981Z,979.6
2019-03-21T20:54:45.974Z,979.6
2019-03-21T20:55:53.547Z,979.62
2019-03-21T20:56:45.957Z,979.62
2019-03-21T20:57:45.951Z,979.64
2019-03-21T20:58:45.939Z,979.65
2019-03-21T20:59:45.934Z,979.65
2019-03-21T21:00:45.923Z,979.64
2019-03-21T21:01:45.916Z,979.67
2019-03-21T21:02:45.907Z,979.68
2019-03-21T21:03:45.901Z,979.65
2019-03-21T21:04:45.978Z,979.66
2019-03-21T21:05:45.883Z,979.68
2019-03-21T21:06:45.873Z,979.68
2019-03-21T21:07:45.865Z,979.66
2019-03-21T21:08:45.856Z,979.66
2019-03-21T21:09:45.848Z,979.63
2019-03-21T21:10:45.845Z,979.63
2019-03-21T21:11:45.831Z,979.66
2019-03-21T21:12:45.822Z,979.62
2019-03-21T21:13:45.815Z,979.59
2019-03-21T21:14:45.807Z,979.57
2019-03-21T21:15:45.819Z,979.58
2019-03-21T21:16:45.819Z,979.61
2019-03-21T21:17:45.783Z,979.6
2019-03-21T21:18:46.176Z,979.59
2019-03-21T21:19:45.767Z,979.58
2019-03-21T21:20:45.758Z,979.62
2019-03-21T21:21:45.749Z,979.64
2019-03-21T21:22:45.741Z,979.61
2019-03-21T21:23:45.734Z,979.58
2019-03-21T21:24:45.728Z,979.62
2019-03-21T21:25:45.717Z,979.59
2019-03-21T21:26:45.713Z,979.58
2019-03-21T21:27:49.611Z,979.59
2019-03-21T21:28:45.692Z,979.59
2019-03-21T21:29:45.685Z,979.63
2019-03-21T21:30:45.677Z,979.6
2019-03-21T21:31:45.672Z,979.62
2019-03-21T21:32:45.661Z,979.61
2019-03-21T21:33:45.653Z,979.57
2019-03-21T21:34:45.643Z,979.6
2019-03-21T21:35:45.636Z,979.6
2019-03-21T21:36:45.628Z,979.59
2019-03-21T21:37:45.618Z,979.59
2019-03-21T21:38:45.611Z,979.63
2019-03-21T21:39:45.612Z,979.63
2019-03-21T21:40:45.594Z,979.65
2019-03-21T21:41:45.592Z,979.65
2019-03-21T21:42:45.584Z,979.64
2019-03-21T21:43:45.570Z,979.67
2019-03-21T21:44:45.564Z,979.61
2019-03-21T21:45:45.554Z,979.66
2019-03-21T21:46:45.546Z,979.62
2019-03-21T21:47:45.538Z,979.65
2019-03-21T21:48:45.530Z,979.65
2019-03-21T21:49:45.525Z,979.6
2019-03-21T21:50:45.514Z,979.59
2019-03-21T21:51:45.505Z,979.58
2019-03-21T21:52:45.497Z,979.57
2019-03-21T21:53:45.489Z,979.57
2019-03-21T21:54:45.482Z,979.6
2019-03-21T21:55:45.474Z,979.6
2019-03-21T21:56:45.481Z,979.6
2019-03-21T21:57:45.462Z,979.61
2019-03-21T21:58:45.448Z,979.59
2019-03-21T21:59:45.440Z,979.57
2019-03-21T22:00:45.433Z,979.54
2019-03-21T22:01:45.426Z,979.55
2019-03-21T22:02:45.416Z,979.57
2019-03-21T22:03:45.408Z,979.57
2019-03-21T22:04:45.401Z,979.57
2019-03-21T22:05:45.392Z,979.59
2019-03-21T22:06:45.389Z,979.57
2019-03-21T22:07:45.376Z,979.58
2019-03-21T22:08:45.405Z,979.59
2019-03-21T22:09:45.358Z,979.6
2019-03-21T22:10:45.351Z,979.63
2019-03-21T22:11:45.342Z,979.63
2019-03-21T22:12:45.335Z,979.6
2019-03-21T22:13:45.326Z,979.62
2019-03-21T22:14:45.321Z,979.62
2019-03-21T22:15:45.311Z,979.61
2019-03-21T22:16:45.303Z,979.59
2019-03-21T22:17:45.298Z,979.6
2019-03-21T22:18:45.286Z,979.61
2019-03-21T22:19:45.278Z,979.63
2019-03-21T22:20:45.269Z,979.58
2019-03-21T22:21:45.260Z,979.62
2019-03-21T22:22:45.254Z,979.63
2019-03-21T22:23:45.346Z,979.58
2019-03-21T22:24:45.236Z,979.55
2019-03-21T22:25:45.228Z,979.55
2019-03-21T22:26:45.220Z,979.59
2019-03-21T22:27:45.218Z,979.56
2019-03-21T22:28:45.204Z,979.56
2019-03-21T22:29:45.198Z,979.58
2019-03-21T22:30:45.188Z,979.57
2019-03-21T22:31:45.179Z,979.61
2019-03-21T22:32:45.171Z,979.6
2019-03-21T22:33:45.164Z,979.62
2019-03-21T22:34:45.159Z,979.58
2019-03-21T22:35:45.146Z,979.57
2019-03-21T22:36:49.451Z,979.57
2019-03-21T22:37:45.137Z,979.58
2019-03-21T22:38:45.123Z,979.57
2019-03-21T22:39:45.115Z,979.53
2019-03-21T22:40:45.105Z,979.58
2019-03-21T22:41:45.097Z,979.57
2019-03-21T22:42:45.088Z,979.58
2019-03-21T22:43:45.081Z,979.54
2019-03-21T22:44:45.073Z,979.53
2019-03-21T22:45:45.066Z,979.52
2019-03-21T22:46:45.056Z,979.5
2019-03-21T22:47:45.048Z,979.52
2019-03-21T22:48:45.040Z,979.52
2019-03-21T22:49:45.031Z,979.49
2019-03-21T22:50:45.023Z,979.49
2019-03-21T22:51:45.018Z,979.46
2019-03-21T22:52:45.020Z,979.51
2019-03-21T22:53:44.997Z,979.44
2019-03-21T22:54:44.989Z,979.47
2019-03-21T22:55:44.984Z,979.5
2019-03-21T22:56:44.974Z,979.44
2019-03-21T22:57:44.967Z,979.51
2019-03-21T22:58:44.957Z,979.56
2019-03-21T22:59:44.949Z,979.53
2019-03-21T23:00:44.942Z,979.51
2019-03-21T23:01:44.933Z,979.51
2019-03-21T23:02:44.927Z,979.49
2019-03-21T23:03:44.916Z,979.52
2019-03-21T23:04:44.908Z,979.48
2019-03-21T23:05:44.900Z,979.49
2019-03-21T23:06:44.892Z,979.48
2019-03-21T23:07:44.883Z,979.53
2019-03-21T23:08:44.874Z,979.48
2019-03-21T23:09:44.866Z,979.53
2019-03-21T23:10:45.171Z,979.56
2019-03-21T23:11:44.850Z,979.52
2019-03-21T23:12:44.858Z,979.5
2019-03-21T23:13:44.835Z,979.49
2019-03-21T23:14:44.826Z,979.45
2019-03-21T23:15:44.816Z,979.45
2019-03-21T23:16:44.808Z,979.45
2019-03-21T23:17:44.801Z,979.45
2019-03-21T23:18:44.793Z,979.44
2019-03-21T23:19:44.783Z,979.48
2019-03-21T23:20:44.774Z,979.44
2019-03-21T23:21:44.768Z,979.44
2019-03-21T23:22:44.758Z,979.41
2019-03-21T23:23:44.750Z,979.41
2019-03-21T23:24:44.742Z,979.41
2019-03-21T23:25:44.734Z,979.42
2019-03-21T23:26:52.640Z,979.42
2019-03-21T23:27:44.717Z,979.36
2019-03-21T23:28:44.709Z,979.4
2019-03-21T23:29:44.708Z,979.36
2019-03-21T23:30:44.692Z,979.39
2019-03-21T23:31:44.684Z,979.42
2019-03-21T23:32:44.677Z,979.38
2019-03-21T23:33:44.670Z,979.39
2019-03-21T23:34:44.658Z,979.37
2019-03-21T23:35:44.652Z,979.37
2019-03-21T23:36:44.846Z,979.38
2019-03-21T23:37:44.633Z,979.39
2019-03-21T23:38:44.671Z,979.39
2019-03-21T23:39:44.617Z,979.37
2019-03-21T23:40:44.609Z,979.36
2019-03-21T23:41:44.800Z,979.34
2019-03-21T23:42:44.592Z,979.37
2019-03-21T23:43:44.583Z,979.32
2019-03-21T23:44:44.574Z,979.34
2019-03-21T23:45:44.566Z,979.29
2019-03-21T23:46:44.558Z,979.32
2019-03-21T23:47:44.549Z,979.33
2019-03-21T23:48:44.540Z,979.34
2019-03-21T23:49:44.533Z,979.34
2019-03-21T23:50:44.524Z,979.36
2019-03-21T23:51:44.516Z,979.31
2019-03-21T23:52:44.570Z,979.33
2019-03-21T23:53:44.502Z,979.33
2019-03-21T23:54:44.494Z,979.34
2019-03-21T23:55:44.484Z,979.34
2019-03-21T23:56:44.484Z,979.3
2019-03-21T23:57:44.467Z,979.3
2019-03-21T23:58:44.459Z,979.32
2019-03-21T23:59:44.448Z,979.27
